RYR94TN LIRF-EPKT
Flight info
| Callsign | RYR94TN |
|---|---|
| Flight time | 1h 49m |
| Altitude | 37000 |
| Route | OKU7C OKUNO DCT ATRUP DCT KEGED DCT IBENI DCT ALIVO DCT LEDVA DCT KATQA DCT OGDAS DCT BAVOK BAVO4D |
| Aircraft | B738/M-SDE2E3FGHIRWXY/LB1 |
Departure
| Time | 2026-05-01 10:28 |
|---|---|
| Airport | Rome–Fiumicino Leonardo da Vinci International Airport (LIRF) |
Arrival
| Time | 2026-05-01 12:18 |
|---|---|
| Airport | Katowice Wojciech Korfanty International Airport (EPKT) |
| Time | Latitude | Longitude | Altitude | Speed | Heading |
|---|---|---|---|---|---|
| 2026-05-01 10:03 | 41.79743 | 12.25858 | 13 ft | 0 kts | 115° |
| 2026-05-01 10:15 | 41.79748 | 12.25839 | 14 ft | 2 kts | 105° |
| 2026-05-01 10:15 | 41.79751 | 12.25818 | 15 ft | 2 kts | 85° |
| 2026-05-01 10:15 | 41.79747 | 12.25796 | 14 ft | 2 kts | 53° |
| 2026-05-01 10:16 | 41.79735 | 12.25781 | 15 ft | 2 kts | 30° |
| 2026-05-01 10:16 | 41.79726 | 12.25775 | 14 ft | 1 kts | 25° |
| 2026-05-01 10:16 | 41.79726 | 12.25774 | 14 ft | 0 kts | 25° |
| 2026-05-01 10:18 | 41.79734 | 12.25779 | 15 ft | 2 kts | 25° |
| 2026-05-01 10:18 | 41.79758 | 12.25795 | 16 ft | 5 kts | 25° |
| 2026-05-01 10:18 | 41.79798 | 12.25820 | 15 ft | 8 kts | 25° |
| 2026-05-01 10:19 | 41.79849 | 12.25824 | 14 ft | 8 kts | 316° |
| 2026-05-01 10:19 | 41.79876 | 12.25755 | 14 ft | 9 kts | 295° |
| 2026-05-01 10:19 | 41.79904 | 12.25674 | 14 ft | 11 kts | 295° |
| 2026-05-01 10:20 | 41.79980 | 12.25461 | 13 ft | 15 kts | 295° |
| 2026-05-01 10:20 | 41.80025 | 12.25332 | 13 ft | 15 kts | 295° |
| 2026-05-01 10:20 | 41.80067 | 12.25206 | 13 ft | 15 kts | 290° |
| 2026-05-01 10:20 | 41.80096 | 12.25078 | 13 ft | 14 kts | 284° |
| 2026-05-01 10:21 | 41.80111 | 12.24950 | 13 ft | 13 kts | 271° |
| 2026-05-01 10:21 | 41.80063 | 12.24710 | 13 ft | 15 kts | 250° |
| 2026-05-01 10:21 | 41.80024 | 12.24569 | 13 ft | 17 kts | 250° |
| 2026-05-01 10:22 | 41.79938 | 12.24258 | 13 ft | 17 kts | 250° |
| 2026-05-01 10:22 | 41.79892 | 12.23953 | 14 ft | 16 kts | 249° |
| 2026-05-01 10:23 | 41.79853 | 12.23814 | 15 ft | 16 kts | 250° |
| 2026-05-01 10:23 | 41.79706 | 12.23739 | 13 ft | 14 kts | 163° |
| 2026-05-01 10:23 | 41.79619 | 12.23776 | 13 ft | 13 kts | 162° |
| 2026-05-01 10:24 | 41.79448 | 12.23847 | 16 ft | 13 kts | 163° |
| 2026-05-01 10:24 | 41.79285 | 12.23915 | 16 ft | 12 kts | 162° |
| 2026-05-01 10:25 | 41.79093 | 12.23996 | 15 ft | 17 kts | 162° |
| 2026-05-01 10:25 | 41.78854 | 12.24095 | 15 ft | 18 kts | 162° |
| 2026-05-01 10:26 | 41.78739 | 12.24143 | 14 ft | 17 kts | 162° |
| 2026-05-01 10:26 | 41.78627 | 12.24191 | 16 ft | 16 kts | 162° |
| 2026-05-01 10:26 | 41.78416 | 12.24279 | 15 ft | 15 kts | 162° |
| 2026-05-01 10:27 | 41.78296 | 12.24152 | 14 ft | 14 kts | 252° |
| 2026-05-01 10:27 | 41.78354 | 12.23978 | 8 ft | 13 kts | 342° |
| 2026-05-01 10:28 | 41.78666 | 12.23846 | 14 ft | 87 kts | 342° |
| 2026-05-01 10:28 | 41.80585 | 12.23023 | 680 ft | 167 kts | 343° |
| 2026-05-01 10:28 | 41.81672 | 12.22536 | 1871 ft | 167 kts | 348° |
| 2026-05-01 10:29 | 41.83431 | 12.20075 | 2724 ft | 227 kts | 284° |
| 2026-05-01 10:29 | 41.83816 | 12.18020 | 3106 ft | 240 kts | 288° |
| 2026-05-01 10:30 | 41.84834 | 12.13692 | 4539 ft | 247 kts | 288° |
| 2026-05-01 10:30 | 41.84147 | 12.09037 | 5848 ft | 277 kts | 230° |
| 2026-05-01 10:31 | 41.80677 | 12.07070 | 7148 ft | 285 kts | 172° |
| 2026-05-01 10:31 | 41.77068 | 12.09286 | 8543 ft | 292 kts | 145° |
| 2026-05-01 10:32 | 41.73579 | 12.12258 | 9959 ft | 303 kts | 146° |
| 2026-05-01 10:32 | 41.71756 | 12.13755 | 10556 ft | 312 kts | 147° |
| 2026-05-01 10:32 | 41.68104 | 12.17605 | 10912 ft | 356 kts | 136° |
| 2026-05-01 10:33 | 41.64256 | 12.22115 | 11804 ft | 377 kts | 138° |
| 2026-05-01 10:33 | 41.61289 | 12.27784 | 13108 ft | 377 kts | 101° |
| 2026-05-01 10:34 | 41.61085 | 12.31246 | 13742 ft | 373 kts | 80° |
| 2026-05-01 10:34 | 41.61758 | 12.34560 | 14338 ft | 370 kts | 61° |
| 2026-05-01 10:34 | 41.63137 | 12.37403 | 14929 ft | 365 kts | 43° |
| 2026-05-01 10:35 | 41.66852 | 12.42068 | 16121 ft | 370 kts | 38° |
| 2026-05-01 10:35 | 41.68780 | 12.44377 | 16692 ft | 373 kts | 38° |
| 2026-05-01 10:35 | 41.70721 | 12.46724 | 17302 ft | 377 kts | 38° |
| 2026-05-01 10:35 | 41.72666 | 12.49107 | 17889 ft | 381 kts | 38° |
| 2026-05-01 10:36 | 41.76573 | 12.53947 | 18937 ft | 388 kts | 38° |
| 2026-05-01 10:36 | 41.78564 | 12.56423 | 19439 ft | 391 kts | 38° |
| 2026-05-01 10:36 | 41.80571 | 12.58908 | 19923 ft | 394 kts | 37° |
| 2026-05-01 10:37 | 41.82727 | 12.61191 | 20394 ft | 395 kts | 31° |
| 2026-05-01 10:37 | 41.87297 | 12.65356 | 21344 ft | 400 kts | 29° |
| 2026-05-01 10:37 | 41.89589 | 12.67426 | 21804 ft | 403 kts | 29° |
| 2026-05-01 10:38 | 41.91912 | 12.69562 | 22256 ft | 407 kts | 30° |
| 2026-05-01 10:38 | 41.94250 | 12.71745 | 22698 ft | 410 kts | 30° |
| 2026-05-01 10:38 | 41.96601 | 12.73960 | 23139 ft | 413 kts | 30° |
| 2026-05-01 10:38 | 41.98921 | 12.76152 | 23566 ft | 416 kts | 30° |
| 2026-05-01 10:39 | 42.01307 | 12.78407 | 23940 ft | 420 kts | 30° |
| 2026-05-01 10:39 | 42.03590 | 12.80826 | 24260 ft | 430 kts | 41° |
| 2026-05-01 10:39 | 42.05357 | 12.84151 | 24576 ft | 442 kts | 56° |
| 2026-05-01 10:39 | 42.06827 | 12.87807 | 24954 ft | 444 kts | 57° |
| 2026-05-01 10:40 | 42.08300 | 12.91496 | 25253 ft | 448 kts | 56° |
| 2026-05-01 10:40 | 42.09811 | 12.95182 | 25539 ft | 451 kts | 56° |
| 2026-05-01 10:40 | 42.11349 | 12.98883 | 25878 ft | 454 kts | 56° |
| 2026-05-01 10:40 | 42.12859 | 13.02645 | 26222 ft | 456 kts | 57° |
| 2026-05-01 10:41 | 42.14323 | 13.06396 | 26529 ft | 459 kts | 58° |
| 2026-05-01 10:41 | 42.15806 | 13.10234 | 26816 ft | 463 kts | 58° |
| 2026-05-01 10:41 | 42.18802 | 13.17981 | 27436 ft | 468 kts | 58° |
| 2026-05-01 10:42 | 42.20314 | 13.21878 | 27724 ft | 470 kts | 58° |
| 2026-05-01 10:42 | 42.21838 | 13.25799 | 27999 ft | 473 kts | 58° |
| 2026-05-01 10:42 | 42.23373 | 13.29749 | 28300 ft | 475 kts | 58° |
| 2026-05-01 10:42 | 42.24894 | 13.33668 | 28570 ft | 478 kts | 58° |
| 2026-05-01 10:43 | 42.26439 | 13.37655 | 28892 ft | 479 kts | 58° |
| 2026-05-01 10:43 | 42.27982 | 13.41646 | 29254 ft | 480 kts | 58° |
| 2026-05-01 10:43 | 42.29527 | 13.45647 | 29687 ft | 478 kts | 58° |
| 2026-05-01 10:43 | 42.31063 | 13.49627 | 30120 ft | 477 kts | 57° |
| 2026-05-01 10:44 | 42.32628 | 13.53590 | 30440 ft | 475 kts | 52° |
| 2026-05-01 10:44 | 42.34700 | 13.56912 | 30641 ft | 462 kts | 34° |
| 2026-05-01 10:44 | 42.37332 | 13.59298 | 30976 ft | 449 kts | 20° |
| 2026-05-01 10:44 | 42.40215 | 13.60751 | 31317 ft | 436 kts | 6° |
| 2026-05-01 10:45 | 42.43194 | 13.61436 | 31659 ft | 431 kts | 2° |
| 2026-05-01 10:45 | 42.46159 | 13.61980 | 31941 ft | 431 kts | 1° |
| 2026-05-01 10:45 | 42.49096 | 13.62489 | 32241 ft | 430 kts | 1° |
| 2026-05-01 10:45 | 42.52063 | 13.63007 | 32575 ft | 430 kts | 1° |
| 2026-05-01 10:46 | 42.55025 | 13.63541 | 32897 ft | 428 kts | 1° |
| 2026-05-01 10:46 | 42.57979 | 13.64091 | 33253 ft | 427 kts | 2° |
| 2026-05-01 10:46 | 42.60933 | 13.64653 | 33542 ft | 426 kts | 2° |
| 2026-05-01 10:46 | 42.63874 | 13.65219 | 33826 ft | 426 kts | 2° |
| 2026-05-01 10:47 | 42.66778 | 13.65784 | 34106 ft | 425 kts | 2° |
| 2026-05-01 10:47 | 42.69707 | 13.66355 | 34388 ft | 424 kts | 2° |
| 2026-05-01 10:47 | 42.72634 | 13.66927 | 34654 ft | 422 kts | 2° |
| 2026-05-01 10:47 | 42.75543 | 13.67497 | 34898 ft | 422 kts | 2° |
| 2026-05-01 10:48 | 42.78422 | 13.68060 | 35083 ft | 422 kts | 2° |
| 2026-05-01 10:48 | 42.81338 | 13.68629 | 35263 ft | 422 kts | 2° |
| 2026-05-01 10:48 | 42.84248 | 13.69198 | 35331 ft | 423 kts | 2° |
| 2026-05-01 10:49 | 42.90062 | 13.70337 | 35344 ft | 423 kts | 2° |
| 2026-05-01 10:49 | 42.95855 | 13.71477 | 35339 ft | 421 kts | 2° |
| 2026-05-01 10:50 | 43.01657 | 13.72618 | 35348 ft | 420 kts | 1° |
| 2026-05-01 10:50 | 43.07460 | 13.73763 | 35352 ft | 419 kts | 1° |
| 2026-05-01 10:51 | 43.13206 | 13.74897 | 35350 ft | 419 kts | 1° |
| 2026-05-01 10:51 | 43.18976 | 13.76038 | 35349 ft | 419 kts | 1° |
| 2026-05-01 10:52 | 43.24730 | 13.77179 | 35345 ft | 419 kts | 1° |
| 2026-05-01 10:52 | 43.30517 | 13.78329 | 35350 ft | 419 kts | 2° |
| 2026-05-01 10:53 | 43.36263 | 13.79473 | 35348 ft | 419 kts | 2° |
| 2026-05-01 10:53 | 43.41893 | 13.80596 | 35355 ft | 419 kts | 2° |
| 2026-05-01 10:54 | 43.47666 | 13.81749 | 35351 ft | 419 kts | 2° |
| 2026-05-01 10:54 | 43.53454 | 13.82908 | 35354 ft | 420 kts | 2° |
| 2026-05-01 10:55 | 43.59220 | 13.84061 | 35352 ft | 420 kts | 2° |
| 2026-05-01 10:55 | 43.64996 | 13.85172 | 35353 ft | 420 kts | 2° |
| 2026-05-01 10:56 | 43.70807 | 13.86281 | 35355 ft | 421 kts | 2° |
| 2026-05-01 10:56 | 43.76569 | 13.87388 | 35362 ft | 421 kts | 2° |
| 2026-05-01 10:57 | 43.82435 | 13.88519 | 35523 ft | 427 kts | 2° |
| 2026-05-01 10:57 | 43.85382 | 13.89089 | 35694 ft | 427 kts | 2° |
| 2026-05-01 10:57 | 43.87336 | 13.89468 | 35842 ft | 426 kts | 2° |
| 2026-05-01 10:57 | 43.90272 | 13.90038 | 36047 ft | 426 kts | 3° |
| 2026-05-01 10:58 | 43.94164 | 13.90794 | 36264 ft | 426 kts | 3° |
| 2026-05-01 10:58 | 43.97101 | 13.91363 | 36412 ft | 427 kts | 3° |
| 2026-05-01 10:58 | 43.99097 | 13.91751 | 36519 ft | 427 kts | 3° |
| 2026-05-01 10:58 | 44.01989 | 13.92508 | 36682 ft | 431 kts | 10° |
| 2026-05-01 10:59 | 44.04853 | 13.93846 | 36839 ft | 435 kts | 15° |
| 2026-05-01 10:59 | 44.07691 | 13.95350 | 36978 ft | 436 kts | 16° |
| 2026-05-01 10:59 | 44.10519 | 13.96887 | 37142 ft | 436 kts | 16° |
| 2026-05-01 10:59 | 44.13345 | 13.98427 | 37312 ft | 435 kts | 16° |
| 2026-05-01 11:00 | 44.16142 | 13.99942 | 37350 ft | 436 kts | 16° |
| 2026-05-01 11:00 | 44.21839 | 14.02994 | 37366 ft | 438 kts | 16° |
| 2026-05-01 11:01 | 44.27533 | 14.06022 | 37354 ft | 437 kts | 18° |
| 2026-05-01 11:01 | 44.33176 | 14.09028 | 37352 ft | 436 kts | 16° |
| 2026-05-01 11:02 | 44.38846 | 14.12049 | 37367 ft | 435 kts | 17° |
| 2026-05-01 11:02 | 44.44482 | 14.15058 | 37354 ft | 435 kts | 17° |
| 2026-05-01 11:03 | 44.50149 | 14.18092 | 37353 ft | 434 kts | 17° |
| 2026-05-01 11:03 | 44.55764 | 14.21104 | 37352 ft | 434 kts | 17° |
| 2026-05-01 11:04 | 44.61427 | 14.24149 | 37352 ft | 434 kts | 17° |
| 2026-05-01 11:04 | 44.67069 | 14.27189 | 37352 ft | 434 kts | 17° |
| 2026-05-01 11:05 | 44.72669 | 14.30212 | 37353 ft | 433 kts | 18° |
| 2026-05-01 11:05 | 44.78297 | 14.33257 | 37353 ft | 433 kts | 18° |
| 2026-05-01 11:06 | 44.83913 | 14.36301 | 37355 ft | 432 kts | 18° |
| 2026-05-01 11:06 | 44.89521 | 14.39348 | 37358 ft | 431 kts | 18° |
| 2026-05-01 11:07 | 44.97882 | 14.43902 | 37355 ft | 430 kts | 18° |
| 2026-05-01 11:07 | 45.03456 | 14.46946 | 37350 ft | 428 kts | 18° |
| 2026-05-01 11:08 | 45.09015 | 14.49989 | 37351 ft | 427 kts | 18° |
| 2026-05-01 11:09 | 45.17272 | 14.54519 | 37349 ft | 425 kts | 18° |
| 2026-05-01 11:09 | 45.22785 | 14.57552 | 37349 ft | 423 kts | 18° |
| 2026-05-01 11:10 | 45.30984 | 14.62074 | 37355 ft | 421 kts | 18° |
| 2026-05-01 11:10 | 45.36455 | 14.65100 | 37352 ft | 420 kts | 18° |
| 2026-05-01 11:11 | 45.41902 | 14.68117 | 37365 ft | 419 kts | 18° |
| 2026-05-01 11:11 | 45.47302 | 14.71117 | 37368 ft | 418 kts | 19° |
| 2026-05-01 11:12 | 45.52731 | 14.74140 | 37377 ft | 418 kts | 19° |
| 2026-05-01 11:12 | 45.58135 | 14.77326 | 37370 ft | 420 kts | 20° |
| 2026-05-01 11:13 | 45.63502 | 14.80584 | 37371 ft | 421 kts | 21° |
| 2026-05-01 11:13 | 45.68903 | 14.83861 | 37383 ft | 422 kts | 20° |
| 2026-05-01 11:14 | 45.74300 | 14.87126 | 37381 ft | 423 kts | 21° |
| 2026-05-01 11:14 | 45.79737 | 14.90416 | 37383 ft | 424 kts | 21° |
| 2026-05-01 11:15 | 45.85160 | 14.93702 | 37384 ft | 425 kts | 21° |
| 2026-05-01 11:15 | 45.90632 | 14.97025 | 37372 ft | 426 kts | 21° |
| 2026-05-01 11:16 | 45.96060 | 15.00329 | 37379 ft | 425 kts | 21° |
| 2026-05-01 11:16 | 46.01515 | 15.03656 | 37381 ft | 425 kts | 21° |
| 2026-05-01 11:17 | 46.06930 | 15.06966 | 37384 ft | 423 kts | 21° |
| 2026-05-01 11:17 | 46.12368 | 15.10298 | 37385 ft | 423 kts | 21° |
| 2026-05-01 11:18 | 46.17779 | 15.13619 | 37372 ft | 422 kts | 22° |
| 2026-05-01 11:18 | 46.23141 | 15.16918 | 37377 ft | 420 kts | 22° |
| 2026-05-01 11:19 | 46.28530 | 15.20240 | 37377 ft | 419 kts | 22° |
| 2026-05-01 11:19 | 46.33860 | 15.23533 | 37375 ft | 418 kts | 22° |
| 2026-05-01 11:20 | 46.39200 | 15.26838 | 37373 ft | 416 kts | 22° |
| 2026-05-01 11:20 | 46.44516 | 15.30136 | 37389 ft | 415 kts | 22° |
| 2026-05-01 11:21 | 46.49796 | 15.33420 | 37387 ft | 415 kts | 22° |
| 2026-05-01 11:21 | 46.55110 | 15.36732 | 37387 ft | 415 kts | 22° |
| 2026-05-01 11:22 | 46.60403 | 15.40037 | 37380 ft | 416 kts | 22° |
| 2026-05-01 11:22 | 46.65729 | 15.43369 | 37384 ft | 416 kts | 23° |
| 2026-05-01 11:23 | 46.71063 | 15.46714 | 37381 ft | 416 kts | 23° |
| 2026-05-01 11:23 | 46.76356 | 15.50040 | 37380 ft | 416 kts | 23° |
| 2026-05-01 11:24 | 46.81676 | 15.53391 | 37380 ft | 416 kts | 23° |
| 2026-05-01 11:25 | 46.89624 | 15.58410 | 37373 ft | 415 kts | 23° |
| 2026-05-01 11:25 | 46.97585 | 15.63455 | 37377 ft | 414 kts | 23° |
| 2026-05-01 11:26 | 47.05484 | 15.68475 | 37376 ft | 413 kts | 23° |
| 2026-05-01 11:27 | 47.10750 | 15.71831 | 37374 ft | 412 kts | 23° |
| 2026-05-01 11:27 | 47.16000 | 15.75185 | 37379 ft | 411 kts | 24° |
| 2026-05-01 11:28 | 47.21246 | 15.78542 | 37375 ft | 409 kts | 24° |
| 2026-05-01 11:28 | 47.26442 | 15.81876 | 37373 ft | 408 kts | 24° |
| 2026-05-01 11:29 | 47.34215 | 15.86876 | 37375 ft | 405 kts | 24° |
| 2026-05-01 11:30 | 47.41956 | 15.91871 | 37377 ft | 404 kts | 24° |
| 2026-05-01 11:30 | 47.47084 | 15.95189 | 37381 ft | 403 kts | 24° |
| 2026-05-01 11:31 | 47.52225 | 15.98523 | 37390 ft | 403 kts | 24° |
| 2026-05-01 11:31 | 47.57367 | 16.01864 | 37392 ft | 403 kts | 24° |
| 2026-05-01 11:32 | 47.62498 | 16.05205 | 37381 ft | 404 kts | 24° |
| 2026-05-01 11:32 | 47.67665 | 16.08577 | 37384 ft | 405 kts | 24° |
| 2026-05-01 11:33 | 47.72846 | 16.11966 | 37385 ft | 406 kts | 24° |
| 2026-05-01 11:33 | 47.77999 | 16.15343 | 37397 ft | 406 kts | 24° |
| 2026-05-01 11:34 | 47.83159 | 16.18733 | 37390 ft | 406 kts | 24° |
| 2026-05-01 11:34 | 47.88337 | 16.22141 | 37399 ft | 406 kts | 24° |
| 2026-05-01 11:35 | 47.93519 | 16.25560 | 37274 ft | 405 kts | 25° |
| 2026-05-01 11:35 | 47.98543 | 16.28880 | 37359 ft | 392 kts | 25° |
| 2026-05-01 11:36 | 48.03524 | 16.32181 | 37385 ft | 389 kts | 25° |
| 2026-05-01 11:36 | 48.08478 | 16.35471 | 37390 ft | 388 kts | 25° |
| 2026-05-01 11:37 | 48.13396 | 16.38745 | 37398 ft | 389 kts | 25° |
| 2026-05-01 11:37 | 48.18357 | 16.42054 | 37403 ft | 390 kts | 25° |
| 2026-05-01 11:38 | 48.23319 | 16.45370 | 37396 ft | 393 kts | 25° |
| 2026-05-01 11:38 | 48.28330 | 16.48726 | 37404 ft | 395 kts | 25° |
| 2026-05-01 11:39 | 48.33344 | 16.52091 | 37395 ft | 397 kts | 25° |
| 2026-05-01 11:39 | 48.38408 | 16.55497 | 37396 ft | 399 kts | 25° |
| 2026-05-01 11:40 | 48.43496 | 16.58927 | 37388 ft | 400 kts | 25° |
| 2026-05-01 11:40 | 48.48558 | 16.62347 | 37382 ft | 401 kts | 25° |
| 2026-05-01 11:41 | 48.53662 | 16.65802 | 37371 ft | 401 kts | 25° |
| 2026-05-01 11:41 | 48.58758 | 16.69260 | 37377 ft | 400 kts | 25° |
| 2026-05-01 11:42 | 48.63815 | 16.72700 | 37371 ft | 400 kts | 25° |
| 2026-05-01 11:42 | 48.68887 | 16.76157 | 37378 ft | 399 kts | 25° |
| 2026-05-01 11:43 | 48.73668 | 16.80339 | 37373 ft | 396 kts | 37° |
| 2026-05-01 11:43 | 48.77627 | 16.86078 | 37364 ft | 396 kts | 45° |
| 2026-05-01 11:44 | 48.83370 | 16.95085 | 37370 ft | 395 kts | 44° |
| 2026-05-01 11:44 | 48.87200 | 17.01057 | 37371 ft | 394 kts | 44° |
| 2026-05-01 11:45 | 48.90967 | 17.06930 | 37362 ft | 385 kts | 44° |
| 2026-05-01 11:45 | 48.94686 | 17.12737 | 37364 ft | 381 kts | 44° |
| 2026-05-01 11:46 | 48.96542 | 17.15638 | 37106 ft | 384 kts | 44° |
| 2026-05-01 11:46 | 48.97772 | 17.17565 | 36978 ft | 380 kts | 44° |
| 2026-05-01 11:46 | 48.99605 | 17.20437 | 36601 ft | 375 kts | 44° |
| 2026-05-01 11:46 | 49.01419 | 17.23256 | 36281 ft | 369 kts | 42° |
| 2026-05-01 11:47 | 49.03376 | 17.25748 | 35967 ft | 363 kts | 35° |
| 2026-05-01 11:47 | 49.05432 | 17.27931 | 35603 ft | 359 kts | 34° |
| 2026-05-01 11:47 | 49.07483 | 17.30085 | 35260 ft | 355 kts | 34° |
| 2026-05-01 11:47 | 49.09513 | 17.32217 | 34886 ft | 353 kts | 34° |
| 2026-05-01 11:48 | 49.11525 | 17.34337 | 34533 ft | 350 kts | 35° |
| 2026-05-01 11:48 | 49.13492 | 17.36419 | 34139 ft | 347 kts | 35° |
| 2026-05-01 11:48 | 49.15473 | 17.38522 | 33740 ft | 344 kts | 35° |
| 2026-05-01 11:48 | 49.17431 | 17.40607 | 33368 ft | 341 kts | 35° |
| 2026-05-01 11:49 | 49.19368 | 17.42674 | 33016 ft | 337 kts | 35° |
| 2026-05-01 11:49 | 49.21262 | 17.44697 | 32662 ft | 334 kts | 35° |
| 2026-05-01 11:49 | 49.23159 | 17.46727 | 32307 ft | 331 kts | 35° |
| 2026-05-01 11:49 | 49.25044 | 17.48745 | 31953 ft | 329 kts | 35° |
| 2026-05-01 11:50 | 49.26913 | 17.50749 | 31605 ft | 326 kts | 35° |
| 2026-05-01 11:50 | 49.28761 | 17.52732 | 31263 ft | 323 kts | 35° |
| 2026-05-01 11:50 | 49.30600 | 17.54707 | 30925 ft | 321 kts | 36° |
| 2026-05-01 11:50 | 49.32428 | 17.56673 | 30599 ft | 319 kts | 36° |
| 2026-05-01 11:51 | 49.34215 | 17.58595 | 30239 ft | 316 kts | 36° |
| 2026-05-01 11:51 | 49.36012 | 17.60530 | 29878 ft | 313 kts | 36° |
| 2026-05-01 11:51 | 49.37780 | 17.62437 | 29541 ft | 309 kts | 36° |
| 2026-05-01 11:51 | 49.39534 | 17.64330 | 29206 ft | 306 kts | 36° |
| 2026-05-01 11:52 | 49.41266 | 17.66200 | 28877 ft | 302 kts | 36° |
| 2026-05-01 11:52 | 49.42980 | 17.68052 | 28542 ft | 299 kts | 36° |
| 2026-05-01 11:52 | 49.44680 | 17.69892 | 28204 ft | 298 kts | 36° |
| 2026-05-01 11:52 | 49.46349 | 17.71699 | 27892 ft | 296 kts | 36° |
| 2026-05-01 11:53 | 49.48055 | 17.73548 | 27577 ft | 304 kts | 36° |
| 2026-05-01 11:53 | 49.49829 | 17.75474 | 27239 ft | 314 kts | 36° |
| 2026-05-01 11:53 | 49.51614 | 17.77413 | 26877 ft | 313 kts | 36° |
| 2026-05-01 11:53 | 49.53364 | 17.79314 | 26540 ft | 310 kts | 36° |
| 2026-05-01 11:54 | 49.55120 | 17.81224 | 26209 ft | 307 kts | 36° |
| 2026-05-01 11:54 | 49.56862 | 17.83119 | 25876 ft | 305 kts | 36° |
| 2026-05-01 11:54 | 49.58587 | 17.84999 | 25547 ft | 303 kts | 36° |
| 2026-05-01 11:54 | 49.60299 | 17.86866 | 25221 ft | 300 kts | 36° |
| 2026-05-01 11:55 | 49.62000 | 17.88723 | 24901 ft | 298 kts | 36° |
| 2026-05-01 11:55 | 49.63689 | 17.90568 | 24580 ft | 296 kts | 36° |
| 2026-05-01 11:55 | 49.65347 | 17.92381 | 24260 ft | 294 kts | 36° |
| 2026-05-01 11:55 | 49.67015 | 17.94206 | 23952 ft | 292 kts | 36° |
| 2026-05-01 11:56 | 49.68670 | 17.96018 | 23581 ft | 290 kts | 36° |
| 2026-05-01 11:56 | 49.70339 | 17.97758 | 23247 ft | 288 kts | 32° |
| 2026-05-01 11:56 | 49.72127 | 17.99164 | 22894 ft | 286 kts | 27° |
| 2026-05-01 11:56 | 49.73925 | 18.00454 | 22595 ft | 283 kts | 27° |
| 2026-05-01 11:57 | 49.75693 | 18.01706 | 22279 ft | 281 kts | 27° |
| 2026-05-01 11:57 | 49.77463 | 18.02962 | 21979 ft | 278 kts | 27° |
| 2026-05-01 11:57 | 49.79212 | 18.04211 | 21677 ft | 276 kts | 27° |
| 2026-05-01 11:57 | 49.80944 | 18.05454 | 21371 ft | 273 kts | 27° |
| 2026-05-01 11:58 | 49.82667 | 18.06695 | 21067 ft | 271 kts | 27° |
| 2026-05-01 11:58 | 49.84375 | 18.07927 | 20780 ft | 269 kts | 27° |
| 2026-05-01 11:58 | 49.87728 | 18.10355 | 20202 ft | 266 kts | 27° |
| 2026-05-01 11:59 | 49.89407 | 18.11573 | 19919 ft | 266 kts | 27° |
| 2026-05-01 11:59 | 49.91092 | 18.12797 | 19616 ft | 268 kts | 27° |
| 2026-05-01 11:59 | 49.92801 | 18.14039 | 19288 ft | 273 kts | 27° |
| 2026-05-01 12:00 | 49.96197 | 18.16508 | 18735 ft | 269 kts | 27° |
| 2026-05-01 12:00 | 49.97892 | 18.17741 | 18423 ft | 268 kts | 27° |
| 2026-05-01 12:00 | 50.00888 | 18.20953 | 17811 ft | 262 kts | 47° |
| 2026-05-01 12:01 | 50.02000 | 18.23190 | 17507 ft | 260 kts | 53° |
| 2026-05-01 12:01 | 50.03022 | 18.25507 | 17211 ft | 258 kts | 54° |
| 2026-05-01 12:01 | 50.04024 | 18.27810 | 16948 ft | 256 kts | 54° |
| 2026-05-01 12:01 | 50.05021 | 18.30099 | 16670 ft | 253 kts | 53° |
| 2026-05-01 12:02 | 50.06011 | 18.32360 | 16387 ft | 252 kts | 53° |
| 2026-05-01 12:02 | 50.06992 | 18.34595 | 16124 ft | 254 kts | 53° |
| 2026-05-01 12:02 | 50.07997 | 18.36882 | 15842 ft | 257 kts | 53° |
| 2026-05-01 12:02 | 50.09026 | 18.39218 | 15557 ft | 265 kts | 53° |
| 2026-05-01 12:03 | 50.10078 | 18.41606 | 15247 ft | 268 kts | 53° |
| 2026-05-01 12:03 | 50.11133 | 18.44007 | 14932 ft | 267 kts | 53° |
| 2026-05-01 12:03 | 50.12166 | 18.46357 | 14627 ft | 266 kts | 53° |
| 2026-05-01 12:03 | 50.13197 | 18.48757 | 14321 ft | 265 kts | 57° |
| 2026-05-01 12:04 | 50.14038 | 18.51312 | 14047 ft | 264 kts | 62° |
| 2026-05-01 12:04 | 50.14787 | 18.53917 | 13772 ft | 263 kts | 63° |
| 2026-05-01 12:04 | 50.15513 | 18.56503 | 13509 ft | 262 kts | 63° |
| 2026-05-01 12:04 | 50.16249 | 18.59119 | 13240 ft | 263 kts | 63° |
| 2026-05-01 12:05 | 50.16990 | 18.61736 | 12987 ft | 263 kts | 63° |
| 2026-05-01 12:05 | 50.18483 | 18.66977 | 12471 ft | 264 kts | 62° |
| 2026-05-01 12:05 | 50.19236 | 18.69606 | 12210 ft | 265 kts | 62° |
| 2026-05-01 12:06 | 50.19978 | 18.72197 | 11962 ft | 265 kts | 63° |
| 2026-05-01 12:06 | 50.20733 | 18.74831 | 11698 ft | 265 kts | 62° |
| 2026-05-01 12:06 | 50.21420 | 18.77227 | 11464 ft | 265 kts | 62° |
| 2026-05-01 12:06 | 50.22198 | 18.79942 | 11197 ft | 265 kts | 62° |
| 2026-05-01 12:07 | 50.22953 | 18.82577 | 10934 ft | 264 kts | 62° |
| 2026-05-01 12:07 | 50.23699 | 18.85187 | 10674 ft | 261 kts | 62° |
| 2026-05-01 12:07 | 50.24435 | 18.87762 | 10417 ft | 258 kts | 62° |
| 2026-05-01 12:07 | 50.25154 | 18.90277 | 10178 ft | 256 kts | 63° |
| 2026-05-01 12:08 | 50.25880 | 18.92818 | 9899 ft | 255 kts | 62° |
| 2026-05-01 12:08 | 50.26598 | 18.95338 | 9639 ft | 252 kts | 62° |
| 2026-05-01 12:08 | 50.27310 | 18.97837 | 9387 ft | 251 kts | 63° |
| 2026-05-01 12:08 | 50.28009 | 19.00295 | 9144 ft | 250 kts | 62° |
| 2026-05-01 12:09 | 50.28729 | 19.02821 | 8896 ft | 250 kts | 62° |
| 2026-05-01 12:09 | 50.29422 | 19.05259 | 8652 ft | 249 kts | 63° |
| 2026-05-01 12:09 | 50.30128 | 19.07748 | 8410 ft | 249 kts | 63° |
| 2026-05-01 12:09 | 50.30833 | 19.10231 | 8178 ft | 249 kts | 63° |
| 2026-05-01 12:10 | 50.31538 | 19.12719 | 7932 ft | 250 kts | 63° |
| 2026-05-01 12:10 | 50.32982 | 19.17831 | 7114 ft | 260 kts | 63° |
| 2026-05-01 12:10 | 50.33704 | 19.20389 | 6855 ft | 260 kts | 63° |
| 2026-05-01 12:11 | 50.35165 | 19.25569 | 6304 ft | 259 kts | 63° |
| 2026-05-01 12:11 | 50.35889 | 19.28139 | 6043 ft | 253 kts | 63° |
| 2026-05-01 12:11 | 50.36587 | 19.30634 | 5780 ft | 245 kts | 63° |
| 2026-05-01 12:12 | 50.37247 | 19.32995 | 5583 ft | 236 kts | 63° |
| 2026-05-01 12:12 | 50.37902 | 19.35318 | 5364 ft | 231 kts | 61° |
| 2026-05-01 12:12 | 50.38857 | 19.37203 | 5130 ft | 215 kts | 31° |
| 2026-05-01 12:12 | 50.40192 | 19.38066 | 4966 ft | 206 kts | 8° |
| 2026-05-01 12:13 | 50.41621 | 19.38225 | 4789 ft | 203 kts | 0° |
| 2026-05-01 12:13 | 50.43014 | 19.38232 | 4590 ft | 204 kts | 360° |
| 2026-05-01 12:13 | 50.44439 | 19.38245 | 4377 ft | 204 kts | 359° |
| 2026-05-01 12:13 | 50.45859 | 19.38040 | 4153 ft | 207 kts | 339° |
| 2026-05-01 12:14 | 50.46907 | 19.36572 | 4032 ft | 208 kts | 295° |
| 2026-05-01 12:14 | 50.47252 | 19.34374 | 3986 ft | 208 kts | 283° |
| 2026-05-01 12:14 | 50.47449 | 19.32146 | 3793 ft | 209 kts | 281° |
| 2026-05-01 12:14 | 50.47564 | 19.29879 | 3515 ft | 207 kts | 276° |
| 2026-05-01 12:15 | 50.47581 | 19.27627 | 3245 ft | 204 kts | 274° |
| 2026-05-01 12:15 | 50.47578 | 19.25467 | 2980 ft | 192 kts | 273° |
| 2026-05-01 12:15 | 50.47578 | 19.23445 | 2737 ft | 183 kts | 275° |
| 2026-05-01 12:15 | 50.47581 | 19.21457 | 2508 ft | 181 kts | 274° |
| 2026-05-01 12:16 | 50.47584 | 19.19515 | 2259 ft | 175 kts | 273° |
| 2026-05-01 12:16 | 50.47583 | 19.17660 | 2019 ft | 166 kts | 275° |
| 2026-05-01 12:16 | 50.47585 | 19.15918 | 1788 ft | 156 kts | 274° |
| 2026-05-01 12:16 | 50.47579 | 19.14255 | 1578 ft | 153 kts | 274° |
| 2026-05-01 12:17 | 50.47591 | 19.12584 | 1356 ft | 153 kts | 275° |
| 2026-05-01 12:17 | 50.47600 | 19.10936 | 1153 ft | 149 kts | 274° |
| 2026-05-01 12:17 | 50.47595 | 19.09350 | 1000 ft | 137 kts | 272° |
| 2026-05-01 12:17 | 50.47597 | 19.08188 | 998 ft | 76 kts | 270° |
| 2026-05-01 12:18 | 50.47600 | 19.07566 | 1000 ft | 49 kts | 270° |
| 2026-05-01 12:18 | 50.47579 | 19.07139 | 1001 ft | 35 kts | 252° |
| 2026-05-01 12:18 | 50.47491 | 19.06862 | 1004 ft | 25 kts | 240° |
| 2026-05-01 12:18 | 50.47409 | 19.06651 | 999 ft | 21 kts | 224° |
| 2026-05-01 12:19 | 50.47281 | 19.06626 | 999 ft | 14 kts | 176° |
| 2026-05-01 12:19 | 50.47237 | 19.06741 | 997 ft | 14 kts | 92° |
| 2026-05-01 12:19 | 50.47236 | 19.06887 | 1001 ft | 13 kts | 90° |
| 2026-05-01 12:19 | 50.47235 | 19.07025 | 1000 ft | 12 kts | 90° |
| 2026-05-01 12:20 | 50.47235 | 19.07136 | 1002 ft | 4 kts | 96° |
| 2026-05-01 12:20 | 50.47214 | 19.07149 | 1003 ft | 3 kts | 179° |
| 2026-05-01 12:20 | 50.47194 | 19.07149 | 999 ft | 2 kts | 180° |
| 2026-05-01 12:20 | 50.47184 | 19.07149 | 999 ft | 1 kts | 180° |
| 2026-05-01 12:21 | 50.47182 | 19.07149 | 999 ft | 0 kts | 180° |